Time;durP1;ratioP1;P1;durP2;ratioP2;P2;SDS_P1;SDS_P2;PMS_P1;PMS_P2;Temp;Humidity;BMP_temperature;BMP_pressure;BME280_temperature;BME280_humidity;BME280_pressure;Samples;Min_cycle;Max_cycle;Signal;HPM_P1;HPM_P2
2022/05/26 00:00:54;;;;;;;9.25;5.95;;;;;;;;;;5058608;28;20036;-86
2022/05/26 00:03:20;;;;;;;10.43;5.75;;;;;;;;;;5058365;28;20387;-83
2022/05/26 00:05:46;;;;;;;10.32;5.88;;;;;;;;;;5074482;28;20078;-86
2022/05/26 00:08:12;;;;;;;10.40;5.30;;;;;;;;;;5057864;28;20507;-84
2022/05/26 00:10:38;;;;;;;13.57;6.43;;;;;;;;;;5058438;28;20082;-88
2022/05/26 00:13:05;;;;;;;8.60;5.25;;;;;;;;;;5074991;28;20044;-84
2022/05/26 00:15:31;;;;;;;8.45;4.82;;;;;;;;;;5075834;28;20075;-89
2022/05/26 00:17:58;;;;;;;14.55;5.57;;;;;;;;;;5074993;28;20039;-87
2022/05/26 00:20:24;;;;;;;7.88;4.63;;;;;;;;;;5058417;28;20043;-86
2022/05/26 00:22:50;;;;;;;11.80;4.95;;;;;;;;;;5057554;28;20075;-88
2022/05/26 00:25:16;;;;;;;6.93;4.50;;;;;;;;;;5074049;28;20445;-87
2022/05/26 00:27:42;;;;;;;7.05;4.38;;;;;;;;;;5057618;28;20043;-87
2022/05/26 00:30:08;;;;;;;9.77;5.07;;;;;;;;;;5057604;28;20036;-88
2022/05/26 00:32:34;;;;;;;8.55;4.50;;;;;;;;;;5058094;28;20040;-86
2022/05/26 00:35:00;;;;;;;11.63;4.95;;;;;;;;;;5057512;28;20376;-89
2022/05/26 00:37:26;;;;;;;6.18;4.20;;;;;;;;;;5057542;28;20040;-82
2022/05/26 00:39:52;;;;;;;8.90;4.85;;;;;;;;;;5057518;28;20399;-84
2022/05/26 00:42:19;;;;;;;8.35;4.68;;;;;;;;;;5057637;28;20047;-89
2022/05/26 00:44:45;;;;;;;10.57;5.22;;;;;;;;;;5074162;28;20097;-85
2022/05/26 00:47:22;;;;;;;9.43;4.97;;;;;;;;;;5057372;28;20044;-85
2022/05/26 00:50:04;;;;;;;7.25;4.78;;;;;;;;;;5057580;28;20039;-82
2022/05/26 00:52:45;;;;;;;9.75;5.03;;;;;;;;;;5057185;28;20504;-83
2022/05/26 00:55:16;;;;;;;10.90;5.25;;;;;;;;;;5056878;28;20075;-84
2022/05/26 00:58:03;;;;;;;13.55;5.10;;;;;;;;;;5057680;28;20044;-87
2022/05/26 01:00:31;;;;;;;9.07;4.90;;;;;;;;;;5057103;28;20473;-85
2022/05/26 01:03:00;;;;;;;13.43;5.55;;;;;;;;;;5073827;28;20032;-85
2022/05/26 01:05:28;;;;;;;13.85;5.70;;;;;;;;;;5057003;28;20036;-79
2022/05/26 01:07:55;;;;;;;10.98;5.47;;;;;;;;;;5073688;28;20040;-87
2022/05/26 01:10:21;;;;;;;9.40;5.40;;;;;;;;;;5057313;28;20131;-85
2022/05/26 01:12:47;;;;;;;17.58;5.63;;;;;;;;;;5058643;28;20071;-86
2022/05/26 01:15:15;;;;;;;18.83;7.28;;;;;;;;;;5057802;28;20060;-81
2022/05/26 01:17:41;;;;;;;12.25;5.75;;;;;;;;;;5057469;28;20051;-85
2022/05/26 01:20:07;;;;;;;16.80;6.53;;;;;;;;;;5057368;28;20036;-82
2022/05/26 01:22:48;;;;;;;17.38;6.57;;;;;;;;;;5076974;28;20040;-84
2022/05/26 01:25:20;;;;;;;16.35;7.25;;;;;;;;;;5077658;28;20043;-85
2022/05/26 01:27:50;;;;;;;13.95;6.90;;;;;;;;;;5061310;28;20484;-84
2022/05/26 01:30:17;;;;;;;17.60;8.30;;;;;;;;;;5077366;28;20450;-86
2022/05/26 01:33:01;;;;;;;14.25;7.57;;;;;;;;;;5077667;28;20056;-85
2022/05/26 01:35:33;;;;;;;16.38;7.43;;;;;;;;;;5060913;28;20079;-88
2022/05/26 01:38:02;;;;;;;22.05;8.63;;;;;;;;;;5077584;28;20036;-88
2022/05/26 01:40:31;;;;;;;17.08;7.35;;;;;;;;;;5060642;28;20036;-84
2022/05/26 01:43:03;;;;;;;18.02;7.10;;;;;;;;;;5060780;28;20043;-83
2022/05/26 01:45:50;;;;;;;16.35;7.32;;;;;;;;;;5060643;28;20043;-85
2022/05/26 01:48:16;;;;;;;14.43;7.47;;;;;;;;;;5060462;28;20647;-88
2022/05/26 01:50:45;;;;;;;16.00;7.10;;;;;;;;;;5060336;28;20135;-85
2022/05/26 01:53:28;;;;;;;15.25;7.00;;;;;;;;;;5060142;28;20093;-84
2022/05/26 01:55:59;;;;;;;13.65;7.07;;;;;;;;;;5060845;28;20044;-83
2022/05/26 01:58:34;;;;;;;16.92;7.88;;;;;;;;;;5060836;28;20505;-86
2022/05/26 02:01:01;;;;;;;19.60;6.95;;;;;;;;;;5059970;28;20040;-86
2022/05/26 02:03:30;;;;;;;16.05;6.00;;;;;;;;;;5059800;28;20047;-83
2022/05/26 02:05:59;;;;;;;17.90;7.57;;;;;;;;;;5059866;28;20048;-84
2022/05/26 02:08:28;;;;;;;17.42;6.13;;;;;;;;;;5059129;28;20109;-85
2022/05/26 02:11:02;;;;;;;23.13;8.52;;;;;;;;;;5059781;28;20407;-82
2022/05/26 02:13:30;;;;;;;24.90;6.85;;;;;;;;;;5059521;28;20036;-86
2022/05/26 02:16:00;;;;;;;18.63;7.25;;;;;;;;;;5059648;28;20100;-86
2022/05/26 02:18:29;;;;;;;21.30;6.63;;;;;;;;;;5059482;28;20032;-83
2022/05/26 02:20:57;;;;;;;18.40;7.45;;;;;;;;;;5059676;28;20036;-83
2022/05/26 02:23:26;;;;;;;26.20;7.13;;;;;;;;;;5059340;28;20044;-82
2022/05/26 02:25:53;;;;;;;19.98;7.15;;;;;;;;;;5076269;28;20083;-85
2022/05/26 02:28:19;;;;;;;20.45;6.53;;;;;;;;;;5059647;28;20046;-84
2022/05/26 02:30:45;;;;;;;21.25;6.47;;;;;;;;;;5058995;28;20040;-88
2022/05/26 02:33:13;;;;;;;15.82;6.47;;;;;;;;;;5058961;28;20526;-84
2022/05/26 02:35:41;;;;;;;23.05;7.50;;;;;;;;;;5059278;28;20040;-88
2022/05/26 02:38:09;;;;;;;23.25;6.65;;;;;;;;;;5058940;28;20071;-87
2022/05/26 02:40:35;;;;;;;18.08;7.82;;;;;;;;;;5059013;28;20131;-86
2022/05/26 02:43:05;;;;;;;19.92;7.18;;;;;;;;;;5059523;28;20036;-85
2022/05/26 02:45:50;;;;;;;17.63;6.45;;;;;;;;;;5059004;28;20400;-85
2022/05/26 02:48:25;;;;;;;18.80;6.35;;;;;;;;;;5075764;28;20044;-85
2022/05/26 02:50:51;;;;;;;22.23;6.68;;;;;;;;;;5058488;28;20040;-83
2022/05/26 02:53:17;;;;;;;22.25;6.35;;;;;;;;;;5058647;28;20101;-85
2022/05/26 02:55:53;;;;;;;12.95;5.45;;;;;;;;;;5059292;28;20044;-87
2022/05/26 02:58:32;;;;;;;24.63;6.43;;;;;;;;;;5059733;28;20082;-87
2022/05/26 03:01:16;;;;;;;19.08;7.28;;;;;;;;;;5058464;28;20039;-85
2022/05/26 03:03:47;;;;;;;14.45;5.78;;;;;;;;;;5059195;28;20109;-85
2022/05/26 03:06:23;;;;;;;13.23;5.40;;;;;;;;;;5058850;28;20039;-86
2022/05/26 03:08:49;;;;;;;18.05;5.63;;;;;;;;;;5059187;28;20056;-83
2022/05/26 03:11:20;;;;;;;20.10;5.20;;;;;;;;;;5058690;28;20044;-88
2022/05/26 03:13:46;;;;;;;;;;;;;;;;;;5075182;28;20385;-84
2022/05/26 03:16:12;;;;;;;22.90;4.97;;;;;;;;;;5058569;28;19973;-84
2022/05/26 03:18:38;;;;;;;23.25;5.72;;;;;;;;;;5058754;28;20032;-86
2022/05/26 03:21:06;;;;;;;20.95;5.88;;;;;;;;;;5058134;28;20130;-81
2022/05/26 03:23:32;;;;;;;17.65;4.93;;;;;;;;;;5058296;28;20459;-81
2022/05/26 03:25:59;;;;;;;23.15;5.82;;;;;;;;;;5058398;28;20071;-85
2022/05/26 03:28:26;;;;;;;21.70;4.90;;;;;;;;;;5057845;28;20077;-84
2022/05/26 03:30:52;;;;;;;15.60;4.68;;;;;;;;;;5057896;28;20040;-85
2022/05/26 03:33:18;;;;;;;18.98;4.68;;;;;;;;;;5058109;28;20036;-84
2022/05/26 03:41:18;;;;;;;16.48;4.57;;;;;;;;;;5074683;28;20040;-83
2022/05/26 03:43:46;;;;;;;22.42;5.15;;;;;;;;;;5057408;28;20051;-82
2022/05/26 03:46:12;;;;;;;20.55;4.65;;;;;;;;;;5057850;28;20039;-85
2022/05/26 03:48:40;;;;;;;24.25;5.00;;;;;;;;;;5058126;28;20040;-86
2022/05/26 03:51:06;;;;;;;15.75;4.90;;;;;;;;;;5058132;28;20059;-85
2022/05/26 03:53:33;;;;;;;18.60;4.32;;;;;;;;;;5057585;28;20086;-87
2022/05/26 03:55:59;;;;;;;12.98;4.03;;;;;;;;;;5057644;28;20059;-84
2022/05/26 03:58:25;;;;;;;18.05;4.43;;;;;;;;;;5057281;28;20059;-81
2022/05/26 04:00:51;;;;;;;8.02;3.35;;;;;;;;;;5057271;28;20437;-82
2022/05/26 04:03:18;;;;;;;16.25;3.80;;;;;;;;;;5073953;28;20131;-84
2022/05/26 04:05:44;;;;;;;17.25;4.20;;;;;;;;;;5057498;28;20062;-85
2022/05/26 04:08:10;;;;;;;20.17;3.35;;;;;;;;;;5057247;28;20044;-83
2022/05/26 04:10:36;;;;;;;12.13;3.35;;;;;;;;;;5057292;28;20506;-85
2022/05/26 04:13:02;;;;;;;12.02;2.92;;;;;;;;;;5073889;28;20039;-85
2022/05/26 04:15:28;;;;;;;8.95;2.72;;;;;;;;;;5057351;28;20479;-84
2022/05/26 04:17:54;;;;;;;8.23;2.88;;;;;;;;;;5057089;28;20122;-84
2022/05/26 04:20:21;;;;;;;10.45;2.97;;;;;;;;;;5057079;28;20094;-84
2022/05/26 04:22:47;;;;;;;11.55;2.97;;;;;;;;;;5073747;28;20131;-82
2022/05/26 04:25:13;;;;;;;20.58;3.45;;;;;;;;;;5057321;28;20040;-84
2022/05/26 04:27:39;;;;;;;15.00;2.92;;;;;;;;;;5057083;28;20470;-82
2022/05/26 04:30:06;;;;;;;7.75;2.20;;;;;;;;;;5056752;28;20499;-85
2022/05/26 04:32:32;;;;;;;7.93;2.00;;;;;;;;;;5057116;28;20040;-84
2022/05/26 04:34:58;;;;;;;10.68;2.53;;;;;;;;;;5057172;28;20097;-83
2022/05/26 04:37:25;;;;;;;9.27;2.55;;;;;;;;;;5056904;28;20040;-83
2022/05/26 04:39:53;;;;;;;9.45;2.83;;;;;;;;;;5056827;28;20466;-86
2022/05/26 04:42:20;;;;;;;4.22;2.33;;;;;;;;;;5056768;28;20459;-84
2022/05/26 04:44:46;;;;;;;7.55;2.42;;;;;;;;;;5073565;28;20054;-85
2022/05/26 04:47:13;;;;;;;11.57;2.85;;;;;;;;;;5056958;28;20044;-84
2022/05/26 04:49:39;;;;;;;12.52;2.17;;;;;;;;;;5057056;28;20036;-84
2022/05/26 04:52:07;;;;;;;9.82;3.10;;;;;;;;;;5056826;28;20097;-85
2022/05/26 04:54:33;;;;;;;7.60;2.65;;;;;;;;;;5057026;28;20048;-83
2022/05/26 04:56:59;;;;;;;6.90;2.45;;;;;;;;;;5060925;28;20039;-86
2022/05/26 04:59:26;;;;;;;4.88;2.03;;;;;;;;;;5060739;28;20109;-85
2022/05/26 05:01:53;;;;;;;6.65;1.83;;;;;;;;;;5060901;28;20036;-88
2022/05/26 05:04:18;;;;;;;5.65;2.10;;;;;;;;;;5077435;28;20507;-82
2022/05/26 05:06:44;;;;;;;6.28;2.13;;;;;;;;;;5060642;28;20039;-87
2022/05/26 05:09:11;;;;;;;7.03;1.50;;;;;;;;;;5077234;28;20067;-86
2022/05/26 05:11:37;;;;;;;6.65;1.92;;;;;;;;;;5060792;28;20055;-85
2022/05/26 05:14:03;;;;;;;2.60;1.40;;;;;;;;;;5060675;28;20384;-84
2022/05/26 05:16:31;;;;;;;5.70;1.45;;;;;;;;;;5060764;28;20537;-86
2022/05/26 05:18:58;;;;;;;7.22;1.63;;;;;;;;;;5060582;28;20466;-85
2022/05/26 05:21:26;;;;;;;4.10;1.60;;;;;;;;;;5043952;28;20089;-82
2022/05/26 05:23:57;;;;;;;8.82;1.65;;;;;;;;;;5077179;28;20065;-82
2022/05/26 05:26:24;;;;;;;5.68;1.27;;;;;;;;;;5077418;28;20076;-86
2022/05/26 05:28:56;;;;;;;7.47;2.08;;;;;;;;;;5060492;28;20507;-86
2022/05/26 05:31:28;;;;;;;8.38;1.98;;;;;;;;;;5060586;28;20048;-86
2022/05/26 05:34:04;;;;;;;5.53;1.58;;;;;;;;;;5060543;28;20044;-87
2022/05/26 05:36:32;;;;;;;4.93;1.48;;;;;;;;;;5060976;28;20419;-83
2022/05/26 05:38:59;;;;;;;6.45;1.75;;;;;;;;;;5060297;28;20036;-82
2022/05/26 05:41:26;;;;;;;6.50;1.40;;;;;;;;;;5077046;28;20044;-83
2022/05/26 05:43:52;;;;;;;5.93;1.50;;;;;;;;;;5076729;28;20044;-85
2022/05/26 05:46:19;;;;;;;7.13;1.40;;;;;;;;;;5059814;28;20071;-86
2022/05/26 05:48:46;;;;;;;6.07;1.23;;;;;;;;;;5059853;28;20384;-84
2022/05/26 05:51:12;;;;;;;3.28;1.33;;;;;;;;;;5060072;28;20101;-86
2022/05/26 05:53:38;;;;;;;6.75;1.45;;;;;;;;;;5059706;28;20047;-82
2022/05/26 05:56:04;;;;;;;3.72;1.65;;;;;;;;;;5059940;28;20456;-85
2022/05/26 05:58:30;;;;;;;5.35;1.70;;;;;;;;;;5059507;28;20052;-84
2022/05/26 06:00:56;;;;;;;6.60;1.85;;;;;;;;;;5076258;28;20560;-87
2022/05/26 06:03:22;;;;;;;3.47;1.95;;;;;;;;;;5059861;28;20028;-86
2022/05/26 06:05:49;;;;;;;3.70;1.30;;;;;;;;;;5076049;28;20080;-86
2022/05/26 06:08:15;;;;;;;3.88;1.50;;;;;;;;;;5058600;28;20060;-87
2022/05/26 06:10:42;;;;;;;5.25;1.52;;;;;;;;;;5076561;28;20071;-82
2022/05/26 06:13:08;;;;;;;4.72;1.70;;;;;;;;;;5076375;28;20052;-89
2022/05/26 06:15:34;;;;;;;5.25;1.83;;;;;;;;;;5059427;28;20036;-83
2022/05/26 06:18:00;;;;;;;5.70;1.80;;;;;;;;;;5059636;28;20483;-83
2022/05/26 06:20:27;;;;;;;5.75;1.40;;;;;;;;;;5059273;28;20476;-89
2022/05/26 06:22:53;;;;;;;5.28;1.48;;;;;;;;;;5075989;28;20044;-82
2022/05/26 06:25:20;;;;;;;5.18;1.50;;;;;;;;;;5059216;28;20445;-84
2022/05/26 06:30:32;;;;;;;3.72;1.27;;;;;;;;;;5075550;28;20058;-85
2022/05/26 06:38:33;;;;;;;7.53;1.42;;;;;;;;;;5075813;28;20483;-84
2022/05/26 06:42:05;;;;;;;4.68;1.48;;;;;;;;;;5059253;28;20158;-84
2022/05/26 06:43:45;;;;;;;4.15;1.30;;;;;;;;;;5075498;28;20097;-84
2022/05/26 06:46:11;;;;;;;4.22;1.15;;;;;;;;;;5075593;28;20546;-89
2022/05/26 06:48:37;;;;;;;5.78;1.20;;;;;;;;;;5058672;28;20032;-81
2022/05/26 06:51:05;;;;;;;3.50;1.30;;;;;;;;;;5075316;28;20043;-83
2022/05/26 06:53:31;;;;;;;4.82;1.42;;;;;;;;;;5075853;28;20047;-82
2022/05/26 06:55:57;;;;;;;4.18;1.50;;;;;;;;;;5058820;28;20040;-85
2022/05/26 06:58:25;;;;;;;4.53;1.10;;;;;;;;;;5058867;28;20122;-83
2022/05/26 07:00:51;;;;;;;3.47;1.00;;;;;;;;;;5075643;28;20040;-83
2022/05/26 07:03:17;;;;;;;4.00;1.15;;;;;;;;;;5075431;28;20090;-87
2022/05/26 07:05:43;;;;;;;3.72;1.20;;;;;;;;;;5058356;28;20497;-84
2022/05/26 07:08:09;;;;;;;3.72;1.00;;;;;;;;;;5058556;28;20077;-81
2022/05/26 07:10:35;;;;;;;3.60;1.02;;;;;;;;;;5059112;28;20044;-86
2022/05/26 07:13:01;;;;;;;4.15;1.55;;;;;;;;;;5058910;28;20043;-84
2022/05/26 07:15:28;;;;;;;3.75;0.93;;;;;;;;;;5058476;28;20055;-82
2022/05/26 07:17:56;;;;;;;3.53;1.30;;;;;;;;;;5074651;28;20048;-84
2022/05/26 07:20:22;;;;;;;3.35;1.05;;;;;;;;;;5058067;28;20126;-82
2022/05/26 07:22:47;;;;;;;6.30;1.17;;;;;;;;;;5058761;28;20054;-87
2022/05/26 07:25:14;;;;;;;2.72;0.95;;;;;;;;;;5058251;28;20040;-81
2022/05/26 07:27:39;;;;;;;2.70;1.40;;;;;;;;;;5058380;28;20075;-83
2022/05/26 07:30:06;;;;;;;2.67;1.20;;;;;;;;;;5058529;28;20072;-85
2022/05/26 07:32:32;;;;;;;2.08;0.90;;;;;;;;;;5058139;28;20077;-82
2022/05/26 07:34:58;;;;;;;2.55;1.23;;;;;;;;;;5058174;28;20040;-87
2022/05/26 07:43:08;;;;;;;2.58;1.08;;;;;;;;;;5129004;28;20049;-86
2022/05/26 07:45:38;;;;;;;5.72;1.00;;;;;;;;;;5129481;28;20043;-84
2022/05/26 07:48:04;;;;;;;5.15;1.20;;;;;;;;;;5129259;28;20035;-84
2022/05/26 07:50:30;;;;;;;3.78;1.13;;;;;;;;;;5111785;28;20042;-80
2022/05/26 07:52:56;;;;;;;3.83;1.27;;;;;;;;;;5111682;28;20122;-83
2022/05/26 07:55:22;;;;;;;2.75;0.95;;;;;;;;;;5111720;28;20039;-80
2022/05/26 07:57:49;;;;;;;3.22;0.90;;;;;;;;;;5111708;28;20047;-85
2022/05/26 08:00:15;;;;;;;2.13;0.88;;;;;;;;;;5128971;28;20066;-84
2022/05/26 08:02:42;;;;;;;2.10;0.80;;;;;;;;;;5111850;28;20554;-82
2022/05/26 08:05:09;;;;;;;3.15;0.88;;;;;;;;;;5111855;28;20047;-82
2022/05/26 08:07:35;;;;;;;4.40;0.90;;;;;;;;;;5128520;28;20045;-81
2022/05/26 08:10:01;;;;;;;1.67;0.80;;;;;;;;;;5128741;28;20042;-88
2022/05/26 08:12:27;;;;;;;2.95;0.90;;;;;;;;;;5111617;28;20054;-81
2022/05/26 08:14:53;;;;;;;4.72;1.10;;;;;;;;;;5111733;28;20047;-88
2022/05/26 08:17:20;;;;;;;2.42;0.77;;;;;;;;;;5111678;28;20043;-84
2022/05/26 08:19:47;;;;;;;2.22;0.80;;;;;;;;;;5111281;28;20039;-84
2022/05/26 08:22:17;;;;;;;3.80;0.98;;;;;;;;;;5111407;28;20035;-84
2022/05/26 08:24:43;;;;;;;2.53;0.80;;;;;;;;;;5111745;28;20050;-81
2022/05/26 08:27:09;;;;;;;3.50;1.05;;;;;;;;;;5111654;28;20043;-86
2022/05/26 08:29:38;;;;;;;2.15;0.90;;;;;;;;;;5111823;28;20266;-84
2022/05/26 08:32:04;;;;;;;5.25;1.20;;;;;;;;;;5111229;28;20051;-82
2022/05/26 08:34:30;;;;;;;2.53;0.80;;;;;;;;;;5128366;28;20043;-80
2022/05/26 08:36:56;;;;;;;3.92;0.90;;;;;;;;;;5128474;28;20054;-82
2022/05/26 08:39:22;;;;;;;2.33;0.90;;;;;;;;;;5110925;28;20051;-81
2022/05/26 08:41:50;;;;;;;2.33;0.85;;;;;;;;;;5110908;28;20035;-86
2022/05/26 08:44:26;;;;;;;2.30;0.88;;;;;;;;;;5111436;28;20035;-83
2022/05/26 08:47:03;;;;;;;3.85;1.33;;;;;;;;;;5111525;28;20122;-84
2022/05/26 08:49:34;;;;;;;3.00;0.90;;;;;;;;;;5126799;28;20043;-87
2022/05/26 08:52:20;;;;;;;2.80;0.63;;;;;;;;;;5097411;28;20058;-80
2022/05/26 08:54:50;;;;;;;3.63;1.08;;;;;;;;;;5096762;28;20044;-80
2022/05/26 08:57:17;;;;;;;2.95;1.17;;;;;;;;;;5097333;28;20042;-84
2022/05/26 08:59:45;;;;;;;3.70;0.85;;;;;;;;;;5080728;28;20520;-88
2022/05/26 09:02:32;;;;;;;1.95;0.80;;;;;;;;;;5114159;28;20429;-85
2022/05/26 09:05:03;;;;;;;1.48;0.75;;;;;;;;;;5097142;28;20031;-86
2022/05/26 09:13:10;;;;;;;3.63;1.00;;;;;;;;;;5115174;28;20044;-80
2022/05/26 09:15:37;;;;;;;3.28;0.82;;;;;;;;;;5113981;28;20039;-81
2022/05/26 09:18:20;;;;;;;2.65;1.17;;;;;;;;;;5096817;28;20043;-85
2022/05/26 09:20:50;;;;;;;3.97;1.20;;;;;;;;;;5097372;28;20039;-82
2022/05/26 09:23:27;;;;;;;2.05;0.70;;;;;;;;;;5096584;28;20042;-84
2022/05/26 09:26:02;;;;;;;4.97;1.33;;;;;;;;;;5096267;28;20040;-85
2022/05/26 09:28:30;;;;;;;2.72;0.90;;;;;;;;;;5096567;28;20043;-79
2022/05/26 09:30:56;;;;;;;2.60;0.85;;;;;;;;;;5113801;28;20040;-82
2022/05/26 09:33:31;;;;;;;2.58;0.90;;;;;;;;;;5096712;28;20130;-81
2022/05/26 09:36:21;;;;;;;2.95;0.98;;;;;;;;;;5096440;28;20495;-82
2022/05/26 09:38:47;;;;;;;2.90;0.77;;;;;;;;;;5096072;28;20115;-79
2022/05/26 09:41:16;;;;;;;2.80;0.80;;;;;;;;;;5096067;28;20043;-87
2022/05/26 09:43:47;;;;;;;2.28;0.90;;;;;;;;;;5096207;28;20046;-87
2022/05/26 09:46:15;;;;;;;2.63;0.77;;;;;;;;;;5096186;28;20043;-78
2022/05/26 09:48:41;;;;;;;2.45;0.85;;;;;;;;;;5113133;28;20043;-81
2022/05/26 09:51:21;;;;;;;2.28;0.77;;;;;;;;;;5096384;28;20035;-80
2022/05/26 09:53:50;;;;;;;3.08;0.80;;;;;;;;;;5096400;28;20079;-83
2022/05/26 09:56:34;;;;;;;4.28;0.80;;;;;;;;;;5096218;28;20045;-86
2022/05/26 09:59:21;;;;;;;3.80;0.88;;;;;;;;;;5096130;28;20039;-82
2022/05/26 10:01:48;;;;;;;1.88;0.80;;;;;;;;;;5094925;28;20094;-81
2022/05/26 10:04:23;;;;;;;5.03;0.70;;;;;;;;;;5096485;28;20039;-86
2022/05/26 10:06:49;;;;;;;2.90;0.63;;;;;;;;;;5113041;28;20460;-85
2022/05/26 10:09:20;;;;;;;2.20;0.77;;;;;;;;;;5095710;28;20048;-87
2022/05/26 10:11:49;;;;;;;3.28;1.10;;;;;;;;;;5113213;28;20055;-84
2022/05/26 10:14:36;;;;;;;2.80;0.98;;;;;;;;;;5113219;28;20051;-82
2022/05/26 10:17:02;;;;;;;3.67;1.20;;;;;;;;;;5095977;28;20048;-83
2022/05/26 10:19:36;;;;;;;5.07;0.73;;;;;;;;;;5112642;28;20050;-84
2022/05/26 10:22:02;;;;;;;3.28;1.00;;;;;;;;;;5112723;28;20032;-84
2022/05/26 10:24:36;;;;;;;1.88;0.60;;;;;;;;;;5112771;28;20081;-86
2022/05/26 10:27:02;;;;;;;1.58;0.73;;;;;;;;;;5095227;28;20051;-83
2022/05/26 10:29:49;;;;;;;1.27;0.70;;;;;;;;;;5095394;28;20402;-85
2022/05/26 10:32:15;;;;;;;3.22;0.93;;;;;;;;;;5095498;28;20040;-81
2022/05/26 10:34:53;;;;;;;2.50;0.80;;;;;;;;;;5095310;28;20473;-84
2022/05/26 10:37:44;;;;;;;2.55;0.90;;;;;;;;;;5095644;28;20039;-86
2022/05/26 10:40:10;;;;;;;;;;;;;;;;;;5095569;28;20151;-82
2022/05/26 10:42:36;;;;;;;1.48;0.68;;;;;;;;;;5095177;28;19963;-81
2022/05/26 10:45:07;;;;;;;1.52;0.75;;;;;;;;;;5112161;28;20429;-84
2022/05/26 10:47:39;;;;;;;2.25;0.68;;;;;;;;;;5095402;28;20039;-82
2022/05/26 10:50:10;;;;;;;1.42;0.60;;;;;;;;;;5094993;28;20101;-84
2022/05/26 10:52:36;;;;;;;;;;;;;;;;;;5095836;28;20039;-86
2022/05/26 10:55:02;;;;;;;2.67;0.93;;;;;;;;;;5095109;28;20030;-85
2022/05/26 10:57:31;;;;;;;1.58;0.68;;;;;;;;;;5094874;28;20055;-82
2022/05/26 11:00:04;;;;;;;3.58;1.08;;;;;;;;;;5094925;28;20558;-84
2022/05/26 11:02:37;;;;;;;2.78;0.70;;;;;;;;;;5094775;28;20487;-80
2022/05/26 11:05:04;;;;;;;2.45;0.60;;;;;;;;;;5111703;28;20192;-83
2022/05/26 11:07:33;;;;;;;3.55;0.68;;;;;;;;;;5094906;28;20040;-82
2022/05/26 11:10:04;;;;;;;2.70;0.98;;;;;;;;;;5094727;28;20044;-82
2022/05/26 11:12:30;;;;;;;;;;;;;;;;;;5094867;28;20046;-79
2022/05/26 11:17:57;;;;;;;3.08;1.00;;;;;;;;;;5097134;28;20040;-81
2022/05/26 11:20:25;;;;;;;2.05;1.35;;;;;;;;;;5094890;28;20092;-79
2022/05/26 11:22:52;;;;;;;1.42;0.80;;;;;;;;;;5094314;28;20578;-84
2022/05/26 11:25:24;;;;;;;2.67;1.10;;;;;;;;;;5111118;28;20415;-79
2022/05/26 11:27:57;;;;;;;5.00;0.90;;;;;;;;;;5094449;28;20514;-83
2022/05/26 11:36:13;;;;;;;4.32;1.70;;;;;;;;;;5111016;28;20130;-85
2022/05/26 11:38:41;;;;;;;2.65;1.40;;;;;;;;;;5111056;28;20052;-78
2022/05/26 11:41:09;;;;;;;3.08;1.35;;;;;;;;;;5093830;28;20062;-84
2022/05/26 11:43:43;;;;;;;4.30;1.20;;;;;;;;;;5110741;28;20039;-84
2022/05/26 11:46:33;;;;;;;4.40;1.60;;;;;;;;;;5094291;28;20035;-83
2022/05/26 11:48:59;;;;;;;3.38;1.20;;;;;;;;;;5094011;28;20047;-79
2022/05/26 11:51:27;;;;;;;5.38;1.52;;;;;;;;;;5111529;28;20043;-79
2022/05/26 11:53:53;;;;;;;3.03;1.60;;;;;;;;;;5093867;28;20040;-81
2022/05/26 11:56:25;;;;;;;3.60;1.35;;;;;;;;;;5093868;28;20042;-84
2022/05/26 11:59:12;;;;;;;3.20;1.55;;;;;;;;;;5093677;28;20045;-80
2022/05/26 12:01:38;;;;;;;4.95;1.70;;;;;;;;;;5093917;28;20075;-81
2022/05/26 12:04:16;;;;;;;4.60;1.50;;;;;;;;;;5093501;28;20039;-81
2022/05/26 12:06:43;;;;;;;4.55;1.40;;;;;;;;;;5094553;28;20046;-81
2022/05/26 12:09:28;;;;;;;3.95;1.45;;;;;;;;;;5094024;28;20040;-83
2022/05/26 12:11:54;;;;;;;4.97;1.48;;;;;;;;;;5094064;28;20044;-81
2022/05/26 12:14:24;;;;;;;4.50;1.23;;;;;;;;;;5093541;28;20475;-78
2022/05/26 12:16:50;;;;;;;4.15;1.50;;;;;;;;;;5093571;28;20184;-79
2022/05/26 12:19:40;;;;;;;4.80;1.60;;;;;;;;;;5093389;28;20499;-80
2022/05/26 12:22:20;;;;;;;3.33;1.70;;;;;;;;;;5093997;28;20042;-85
2022/05/26 12:24:51;;;;;;;1.80;1.13;;;;;;;;;;5093452;28;20312;-81
2022/05/26 12:27:37;;;;;;;5.95;1.67;;;;;;;;;;5114684;28;20046;-84
2022/05/26 12:30:05;;;;;;;2.90;1.40;;;;;;;;;;5097502;28;20487;-82
2022/05/26 12:32:35;;;;;;;2.13;1.60;;;;;;;;;;5097670;28;20180;-79
2022/05/26 12:35:19;;;;;;;4.43;2.00;;;;;;;;;;5097681;28;20035;-85
2022/05/26 12:38:16;;;;;;;4.15;1.60;;;;;;;;;;5097548;28;20394;-80
2022/05/26 12:40:49;;;;;;;3.33;1.70;;;;;;;;;;5097355;28;20127;-80
2022/05/26 12:43:18;;;;;;;2.88;1.33;;;;;;;;;;5097305;28;20101;-82
2022/05/26 12:46:14;;;;;;;5.63;1.48;;;;;;;;;;5097426;28;20041;-85
2022/05/26 12:49:01;;;;;;;4.95;1.33;;;;;;;;;;5044342;28;20044;-84
2022/05/26 12:51:33;;;;;;;4.35;1.40;;;;;;;;;;5097152;28;20043;-81
2022/05/26 12:54:00;;;;;;;5.38;3.63;;;;;;;;;;5097404;28;20082;-79
2022/05/26 12:56:34;;;;;;;4.90;1.38;;;;;;;;;;5113954;28;20072;-82
2022/05/26 12:59:02;;;;;;;2.53;1.38;;;;;;;;;;5096857;28;20434;-83
2022/05/26 13:01:30;;;;;;;5.28;1.50;;;;;;;;;;5096630;28;20040;-83
2022/05/26 13:04:08;;;;;;;3.90;1.30;;;;;;;;;;5113820;28;20047;-82
2022/05/26 13:06:36;;;;;;;5.88;1.50;;;;;;;;;;5096696;28;20475;-80
2022/05/26 13:09:06;;;;;;;2.50;1.67;;;;;;;;;;5096874;28;20441;-84
2022/05/26 13:11:34;;;;;;;1.60;1.50;;;;;;;;;;5097253;28;20092;-82
2022/05/26 13:14:02;;;;;;;6.38;1.55;;;;;;;;;;5096882;28;20103;-79
2022/05/26 13:16:33;;;;;;;3.35;1.50;;;;;;;;;;5096878;28;20046;-88
2022/05/26 13:19:16;;;;;;;3.00;1.48;;;;;;;;;;5096672;28;20032;-83
2022/05/26 13:21:44;;;;;;;5.03;1.52;;;;;;;;;;5113621;28;20043;-78
2022/05/26 13:24:16;;;;;;;5.18;1.38;;;;;;;;;;5113996;28;20036;-81
2022/05/26 13:26:43;;;;;;;6.72;2.15;;;;;;;;;;5097001;28;20099;-83
2022/05/26 13:29:09;;;;;;;5.40;1.50;;;;;;;;;;5096313;28;20045;-79
2022/05/26 13:34:26;;;;;;;3.80;1.75;;;;;;;;;;5113606;28;20484;-84
2022/05/26 13:36:53;;;;;;;3.17;1.70;;;;;;;;;;5113481;28;20048;-79
2022/05/26 13:39:21;;;;;;;3.30;1.63;;;;;;;;;;5095944;28;20043;-84
2022/05/26 13:41:50;;;;;;;2.70;1.30;;;;;;;;;;5095871;28;20051;-82
2022/05/26 13:44:18;;;;;;;5.35;1.90;;;;;;;;;;5096441;28;20046;-80
2022/05/26 13:46:48;;;;;;;5.13;1.65;;;;;;;;;;5096230;28;20045;-82
2022/05/26 13:49:20;;;;;;;4.03;1.65;;;;;;;;;;5095953;28;20085;-79
2022/05/26 13:51:48;;;;;;;3.63;1.83;;;;;;;;;;5095887;28;20131;-81
2022/05/26 13:54:29;;;;;;;4.03;1.85;;;;;;;;;;5112945;28;20047;-84
2022/05/26 13:56:56;;;;;;;5.75;1.85;;;;;;;;;;5095897;28;20126;-81
2022/05/26 13:59:23;;;;;;;3.83;1.90;;;;;;;;;;5095858;28;20088;-83
2022/05/26 14:02:04;;;;;;;6.15;1.83;;;;;;;;;;5113217;28;20075;-82
2022/05/26 14:04:34;;;;;;;6.28;1.90;;;;;;;;;;5079473;28;20479;-81
2022/05/26 14:07:02;;;;;;;4.60;1.60;;;;;;;;;;5095448;28;20038;-83
2022/05/26 14:09:30;;;;;;;3.90;1.60;;;;;;;;;;5078840;28;20040;-81
2022/05/26 14:12:03;;;;;;;4.68;1.77;;;;;;;;;;5095551;28;20407;-83
2022/05/26 14:14:32;;;;;;;5.38;1.80;;;;;;;;;;5095725;28;20047;-82
2022/05/26 14:17:01;;;;;;;5.38;1.77;;;;;;;;;;5095735;28;20043;-83
2022/05/26 14:19:33;;;;;;;4.85;1.70;;;;;;;;;;5095832;28;20048;-82
2022/05/26 14:21:59;;;;;;;5.97;2.17;;;;;;;;;;5095921;28;20043;-83
2022/05/26 14:24:32;;;;;;;6.10;1.98;;;;;;;;;;5095468;28;20036;-83
2022/05/26 14:27:03;;;;;;;4.50;1.80;;;;;;;;;;5095858;28;20380;-85
2022/05/26 14:29:29;;;;;;;2.70;1.42;;;;;;;;;;5095519;28;20042;-82
2022/05/26 14:32:09;;;;;;;6.38;1.60;;;;;;;;;;5095603;28;20414;-85
2022/05/26 14:34:37;;;;;;;2.60;1.20;;;;;;;;;;5095666;28;20036;-82
2022/05/26 14:37:03;;;;;;;7.85;1.70;;;;;;;;;;5095729;28;20395;-86
2022/05/26 14:39:29;;;;;;;4.03;1.50;;;;;;;;;;5078050;28;20130;-81
2022/05/26 14:41:56;;;;;;;3.97;1.33;;;;;;;;;;5095249;28;20554;-81
2022/05/26 14:44:22;;;;;;;5.82;1.80;;;;;;;;;;5095125;28;20126;-81
2022/05/26 14:46:48;;;;;;;3.28;1.27;;;;;;;;;;5112066;28;20181;-79
2022/05/26 14:49:14;;;;;;;1.52;1.38;;;;;;;;;;5094963;28;20048;-81
2022/05/26 14:51:42;;;;;;;3.55;1.88;;;;;;;;;;5094678;28;20044;-84
2022/05/26 14:56:55;;;;;;;6.22;1.42;;;;;;;;;;5111775;28;20039;-82
2022/05/26 14:59:21;;;;;;;4.32;1.35;;;;;;;;;;5111385;28;20066;-78
2022/05/26 15:01:47;;;;;;;2.78;1.40;;;;;;;;;;5094537;28;20042;-85
2022/05/26 15:04:13;;;;;;;4.07;1.63;;;;;;;;;;5095023;28;20040;-84
2022/05/26 15:06:44;;;;;;;5.28;1.92;;;;;;;;;;5094510;28;20398;-85
2022/05/26 15:09:12;;;;;;;4.60;1.92;;;;;;;;;;5095098;28;20035;-84
2022/05/26 15:11:38;;;;;;;5.78;2.03;;;;;;;;;;5094886;28;20040;-83
2022/05/26 15:14:04;;;;;;;3.53;1.40;;;;;;;;;;5094847;28;20071;-84
2022/05/26 15:16:31;;;;;;;4.95;1.65;;;;;;;;;;5094851;28;20067;-83
2022/05/26 15:18:57;;;;;;;3.30;1.55;;;;;;;;;;5094485;28;20530;-83
2022/05/26 15:21:23;;;;;;;4.43;1.70;;;;;;;;;;5094791;28;20437;-80
2022/05/26 15:23:49;;;;;;;4.72;1.60;;;;;;;;;;5094885;28;20406;-84
2022/05/26 15:26:16;;;;;;;4.47;1.63;;;;;;;;;;5094590;28;20042;-82
2022/05/26 15:28:44;;;;;;;5.90;2.13;;;;;;;;;;5094635;28;20046;-83
2022/05/26 15:31:10;;;;;;;6.55;2.13;;;;;;;;;;5094454;28;20040;-86
2022/05/26 15:33:36;;;;;;;6.25;2.10;;;;;;;;;;5111860;28;20040;-87